sensor_id;sensor_type;location;lat;lon;timestamp;P1;durP1;ratioP1;P2;durP2;ratioP2
22829;SDS011;11581;51.250;6.778;2024-02-21T00:02:04;15.80;;;7.40;;
22829;SDS011;11581;51.250;6.778;2024-02-21T00:04:32;20.25;;;8.23;;
22829;SDS011;11581;51.250;6.778;2024-02-21T00:06:58;18.10;;;7.18;;
22829;SDS011;11581;51.250;6.778;2024-02-21T00:09:25;19.08;;;7.70;;
22829;SDS011;11581;51.250;6.778;2024-02-21T00:11:51;19.23;;;7.63;;
22829;SDS011;11581;51.250;6.778;2024-02-21T00:14:18;18.77;;;8.02;;
22829;SDS011;11581;51.250;6.778;2024-02-21T00:16:45;14.65;;;6.50;;
22829;SDS011;11581;51.250;6.778;2024-02-21T00:19:11;13.20;;;6.15;;
22829;SDS011;11581;51.250;6.778;2024-02-21T00:21:41;14.32;;;6.50;;
22829;SDS011;11581;51.250;6.778;2024-02-21T00:24:07;14.50;;;6.30;;
22829;SDS011;11581;51.250;6.778;2024-02-21T00:26:33;15.13;;;6.35;;
22829;SDS011;11581;51.250;6.778;2024-02-21T00:29:00;17.63;;;7.75;;
22829;SDS011;11581;51.250;6.778;2024-02-21T00:31:26;12.75;;;6.22;;
22829;SDS011;11581;51.250;6.778;2024-02-21T00:33:53;17.08;;;7.50;;
22829;SDS011;11581;51.250;6.778;2024-02-21T00:36:19;14.00;;;6.60;;
22829;SDS011;11581;51.250;6.778;2024-02-21T00:38:47;19.20;;;7.07;;
22829;SDS011;11581;51.250;6.778;2024-02-21T00:41:14;16.50;;;7.05;;
22829;SDS011;11581;51.250;6.778;2024-02-21T00:43:40;14.40;;;7.18;;
22829;SDS011;11581;51.250;6.778;2024-02-21T00:46:07;18.10;;;7.05;;
22829;SDS011;11581;51.250;6.778;2024-02-21T00:48:33;13.23;;;6.97;;
22829;SDS011;11581;51.250;6.778;2024-02-21T00:51:00;15.13;;;6.90;;
22829;SDS011;11581;51.250;6.778;2024-02-21T00:53:26;15.88;;;6.47;;
22829;SDS011;11581;51.250;6.778;2024-02-21T00:55:54;14.63;;;7.40;;
22829;SDS011;11581;51.250;6.778;2024-02-21T00:58:22;20.33;;;7.47;;
22829;SDS011;11581;51.250;6.778;2024-02-21T01:00:48;14.30;;;6.90;;
22829;SDS011;11581;51.250;6.778;2024-02-21T01:03:15;19.33;;;7.20;;
22829;SDS011;11581;51.250;6.778;2024-02-21T01:05:41;14.40;;;6.63;;
22829;SDS011;11581;51.250;6.778;2024-02-21T01:08:08;16.40;;;7.45;;
22829;SDS011;11581;51.250;6.778;2024-02-21T01:10:34;17.60;;;6.97;;
22829;SDS011;11581;51.250;6.778;2024-02-21T01:13:02;16.30;;;6.53;;
22829;SDS011;11581;51.250;6.778;2024-02-21T01:15:28;17.27;;;6.72;;
22829;SDS011;11581;51.250;6.778;2024-02-21T01:17:55;13.35;;;6.95;;
22829;SDS011;11581;51.250;6.778;2024-02-21T01:20:21;13.05;;;5.78;;
22829;SDS011;11581;51.250;6.778;2024-02-21T01:22:48;16.00;;;7.47;;
22829;SDS011;11581;51.250;6.778;2024-02-21T01:25:14;18.33;;;7.20;;
22829;SDS011;11581;51.250;6.778;2024-02-21T01:27:41;18.00;;;7.07;;
22829;SDS011;11581;51.250;6.778;2024-02-21T01:30:09;19.35;;;7.57;;
22829;SDS011;11581;51.250;6.778;2024-02-21T01:32:37;15.48;;;6.50;;
22829;SDS011;11581;51.250;6.778;2024-02-21T01:35:03;12.73;;;6.57;;
22829;SDS011;11581;51.250;6.778;2024-02-21T01:37:30;15.00;;;7.00;;
22829;SDS011;11581;51.250;6.778;2024-02-21T01:39:56;14.50;;;6.57;;
22829;SDS011;11581;51.250;6.778;2024-02-21T01:42:23;20.05;;;6.82;;
22829;SDS011;11581;51.250;6.778;2024-02-21T01:44:49;14.13;;;5.78;;
22829;SDS011;11581;51.250;6.778;2024-02-21T01:47:17;15.15;;;6.20;;
22829;SDS011;11581;51.250;6.778;2024-02-21T01:49:45;24.35;;;6.72;;
22829;SDS011;11581;51.250;6.778;2024-02-21T01:52:11;14.95;;;6.20;;
22829;SDS011;11581;51.250;6.778;2024-02-21T01:54:39;12.77;;;5.68;;
22829;SDS011;11581;51.250;6.778;2024-02-21T01:57:06;17.05;;;6.32;;
22829;SDS011;11581;51.250;6.778;2024-02-21T01:59:32;12.55;;;6.05;;
22829;SDS011;11581;51.250;6.778;2024-02-21T02:02:00;13.02;;;6.30;;
22829;SDS011;11581;51.250;6.778;2024-02-21T02:04:29;12.50;;;5.40;;
22829;SDS011;11581;51.250;6.778;2024-02-21T02:06:56;15.82;;;5.93;;
22829;SDS011;11581;51.250;6.778;2024-02-21T02:09:23;17.17;;;6.15;;
22829;SDS011;11581;51.250;6.778;2024-02-21T02:11:50;11.07;;;5.75;;
22829;SDS011;11581;51.250;6.778;2024-02-21T02:14:16;15.68;;;6.10;;
22829;SDS011;11581;51.250;6.778;2024-02-21T02:16:45;16.52;;;6.10;;
22829;SDS011;11581;51.250;6.778;2024-02-21T02:19:12;11.20;;;5.43;;
22829;SDS011;11581;51.250;6.778;2024-02-21T02:21:41;15.55;;;6.50;;
22829;SDS011;11581;51.250;6.778;2024-02-21T02:24:10;11.00;;;5.38;;
22829;SDS011;11581;51.250;6.778;2024-02-21T02:26:36;14.35;;;5.78;;
22829;SDS011;11581;51.250;6.778;2024-02-21T02:29:03;13.48;;;5.75;;
22829;SDS011;11581;51.250;6.778;2024-02-21T02:31:30;11.80;;;5.38;;
22829;SDS011;11581;51.250;6.778;2024-02-21T02:33:56;11.43;;;5.63;;
22829;SDS011;11581;51.250;6.778;2024-02-21T02:36:23;13.88;;;5.10;;
22829;SDS011;11581;51.250;6.778;2024-02-21T02:38:49;11.55;;;5.40;;
22829;SDS011;11581;51.250;6.778;2024-02-21T02:41:17;12.10;;;6.03;;
22829;SDS011;11581;51.250;6.778;2024-02-21T02:43:43;11.90;;;4.97;;
22829;SDS011;11581;51.250;6.778;2024-02-21T02:46:10;15.13;;;5.30;;
22829;SDS011;11581;51.250;6.778;2024-02-21T02:48:36;18.10;;;5.75;;
22829;SDS011;11581;51.250;6.778;2024-02-21T02:51:03;17.30;;;6.18;;
22829;SDS011;11581;51.250;6.778;2024-02-21T02:53:30;18.23;;;5.30;;
22829;SDS011;11581;51.250;6.778;2024-02-21T02:55:56;9.80;;;5.38;;
22829;SDS011;11581;51.250;6.778;2024-02-21T02:58:24;13.73;;;5.60;;
22829;SDS011;11581;51.250;6.778;2024-02-21T03:00:50;11.88;;;4.95;;
22829;SDS011;11581;51.250;6.778;2024-02-21T03:03:17;14.60;;;5.97;;
22829;SDS011;11581;51.250;6.778;2024-02-21T03:05:43;14.95;;;6.80;;
22829;SDS011;11581;51.250;6.778;2024-02-21T03:08:10;14.68;;;5.75;;
22829;SDS011;11581;51.250;6.778;2024-02-21T03:10:36;12.77;;;5.70;;
22829;SDS011;11581;51.250;6.778;2024-02-21T03:13:03;11.82;;;5.22;;
22829;SDS011;11581;51.250;6.778;2024-02-21T03:15:31;21.00;;;6.55;;
22829;SDS011;11581;51.250;6.778;2024-02-21T03:17:57;9.77;;;5.03;;
22829;SDS011;11581;51.250;6.778;2024-02-21T03:20:24;10.10;;;4.40;;
22829;SDS011;11581;51.250;6.778;2024-02-21T03:22:50;11.55;;;5.28;;
22829;SDS011;11581;51.250;6.778;2024-02-21T03:25:17;19.85;;;6.40;;
22829;SDS011;11581;51.250;6.778;2024-02-21T03:27:44;13.95;;;5.57;;
22829;SDS011;11581;51.250;6.778;2024-02-21T03:30:11;14.23;;;5.40;;
22829;SDS011;11581;51.250;6.778;2024-02-21T03:32:40;16.65;;;5.53;;
22829;SDS011;11581;51.250;6.778;2024-02-21T03:35:06;11.68;;;5.72;;
22829;SDS011;11581;51.250;6.778;2024-02-21T03:37:33;16.10;;;6.10;;
22829;SDS011;11581;51.250;6.778;2024-02-21T03:39:59;11.77;;;5.95;;
22829;SDS011;11581;51.250;6.778;2024-02-21T03:42:27;13.60;;;5.60;;
22829;SDS011;11581;51.250;6.778;2024-02-21T03:44:55;11.88;;;5.50;;
22829;SDS011;11581;51.250;6.778;2024-02-21T03:47:21;13.43;;;5.47;;
22829;SDS011;11581;51.250;6.778;2024-02-21T03:49:49;11.48;;;4.78;;
22829;SDS011;11581;51.250;6.778;2024-02-21T03:52:15;13.13;;;4.88;;
22829;SDS011;11581;51.250;6.778;2024-02-21T03:54:42;8.50;;;4.78;;
22829;SDS011;11581;51.250;6.778;2024-02-21T03:57:09;11.27;;;4.93;;
22829;SDS011;11581;51.250;6.778;2024-02-21T03:59:36;10.30;;;4.53;;
22829;SDS011;11581;51.250;6.778;2024-02-21T04:02:04;11.60;;;4.93;;
22829;SDS011;11581;51.250;6.778;2024-02-21T04:04:33;11.98;;;4.82;;
22829;SDS011;11581;51.250;6.778;2024-02-21T04:07:01;10.35;;;4.68;;
22829;SDS011;11581;51.250;6.778;2024-02-21T04:09:31;10.77;;;4.47;;
22829;SDS011;11581;51.250;6.778;2024-02-21T04:11:57;10.88;;;4.90;;
22829;SDS011;11581;51.250;6.778;2024-02-21T04:14:24;6.88;;;3.90;;
22829;SDS011;11581;51.250;6.778;2024-02-21T04:16:50;9.50;;;4.85;;
22829;SDS011;11581;51.250;6.778;2024-02-21T04:19:17;12.15;;;4.95;;
22829;SDS011;11581;51.250;6.778;2024-02-21T04:21:43;10.13;;;4.65;;
22829;SDS011;11581;51.250;6.778;2024-02-21T04:24:11;10.00;;;4.38;;
22829;SDS011;11581;51.250;6.778;2024-02-21T04:26:37;11.68;;;5.47;;
22829;SDS011;11581;51.250;6.778;2024-02-21T04:29:04;10.73;;;4.97;;
22829;SDS011;11581;51.250;6.778;2024-02-21T04:31:32;10.25;;;4.78;;
22829;SDS011;11581;51.250;6.778;2024-02-21T04:33:58;8.55;;;4.38;;
22829;SDS011;11581;51.250;6.778;2024-02-21T04:36:25;12.20;;;4.45;;
22829;SDS011;11581;51.250;6.778;2024-02-21T04:38:51;8.50;;;3.80;;
22829;SDS011;11581;51.250;6.778;2024-02-21T04:41:19;10.80;;;4.72;;
22829;SDS011;11581;51.250;6.778;2024-02-21T04:43:45;12.07;;;4.47;;
22829;SDS011;11581;51.250;6.778;2024-02-21T04:46:12;10.23;;;4.43;;
22829;SDS011;11581;51.250;6.778;2024-02-21T04:48:38;13.43;;;4.85;;
22829;SDS011;11581;51.250;6.778;2024-02-21T04:51:05;9.30;;;4.70;;
22829;SDS011;11581;51.250;6.778;2024-02-21T04:53:31;12.88;;;4.43;;
22829;SDS011;11581;51.250;6.778;2024-02-21T04:55:57;9.45;;;4.28;;
22829;SDS011;11581;51.250;6.778;2024-02-21T04:58:25;12.70;;;4.60;;
22829;SDS011;11581;51.250;6.778;2024-02-21T05:00:52;11.90;;;4.88;;
22829;SDS011;11581;51.250;6.778;2024-02-21T05:03:19;10.15;;;4.32;;
22829;SDS011;11581;51.250;6.778;2024-02-21T05:05:46;8.57;;;4.03;;
22829;SDS011;11581;51.250;6.778;2024-02-21T05:08:13;11.73;;;3.95;;
22829;SDS011;11581;51.250;6.778;2024-02-21T05:10:39;12.32;;;4.88;;
22829;SDS011;11581;51.250;6.778;2024-02-21T05:13:06;10.93;;;4.63;;
22829;SDS011;11581;51.250;6.778;2024-02-21T05:15:33;9.30;;;4.22;;
22829;SDS011;11581;51.250;6.778;2024-02-21T05:18:00;8.80;;;3.88;;
22829;SDS011;11581;51.250;6.778;2024-02-21T05:20:26;10.45;;;4.03;;
22829;SDS011;11581;51.250;6.778;2024-02-21T05:22:53;9.77;;;4.13;;
22829;SDS011;11581;51.250;6.778;2024-02-21T05:25:19;9.50;;;3.80;;
22829;SDS011;11581;51.250;6.778;2024-02-21T05:27:46;10.95;;;4.38;;
22829;SDS011;11581;51.250;6.778;2024-02-21T05:30:13;11.18;;;4.47;;
22829;SDS011;11581;51.250;6.778;2024-02-21T05:32:41;10.95;;;4.10;;
22829;SDS011;11581;51.250;6.778;2024-02-21T05:35:08;11.23;;;4.10;;
22829;SDS011;11581;51.250;6.778;2024-02-21T05:37:34;11.57;;;4.32;;
22829;SDS011;11581;51.250;6.778;2024-02-21T05:40:01;14.43;;;4.32;;
22829;SDS011;11581;51.250;6.778;2024-02-21T05:42:27;14.57;;;4.15;;
22829;SDS011;11581;51.250;6.778;2024-02-21T05:44:53;8.55;;;3.67;;
22829;SDS011;11581;51.250;6.778;2024-02-21T05:47:20;9.60;;;3.92;;
22829;SDS011;11581;51.250;6.778;2024-02-21T05:49:48;9.35;;;3.97;;
22829;SDS011;11581;51.250;6.778;2024-02-21T05:52:14;9.90;;;4.22;;
22829;SDS011;11581;51.250;6.778;2024-02-21T05:54:41;8.60;;;3.90;;
22829;SDS011;11581;51.250;6.778;2024-02-21T05:57:07;9.32;;;3.75;;
22829;SDS011;11581;51.250;6.778;2024-02-21T05:59:34;8.98;;;3.90;;
22829;SDS011;11581;51.250;6.778;2024-02-21T06:02:01;9.32;;;3.50;;
22829;SDS011;11581;51.250;6.778;2024-02-21T06:04:29;9.88;;;4.13;;
22829;SDS011;11581;51.250;6.778;2024-02-21T06:06:56;10.68;;;4.22;;
22829;SDS011;11581;51.250;6.778;2024-02-21T06:09:23;11.60;;;3.80;;
22829;SDS011;11581;51.250;6.778;2024-02-21T06:11:49;8.05;;;3.70;;
22829;SDS011;11581;51.250;6.778;2024-02-21T06:14:16;8.75;;;3.80;;
22829;SDS011;11581;51.250;6.778;2024-02-21T06:16:43;11.20;;;3.63;;
22829;SDS011;11581;51.250;6.778;2024-02-21T06:19:09;8.63;;;3.58;;
22829;SDS011;11581;51.250;6.778;2024-02-21T06:21:36;7.28;;;3.65;;
22829;SDS011;11581;51.250;6.778;2024-02-21T06:24:04;10.00;;;3.65;;
22829;SDS011;11581;51.250;6.778;2024-02-21T06:26:30;8.75;;;3.88;;
22829;SDS011;11581;51.250;6.778;2024-02-21T06:28:57;10.48;;;3.92;;
22829;SDS011;11581;51.250;6.778;2024-02-21T06:31:24;10.90;;;3.53;;
22829;SDS011;11581;51.250;6.778;2024-02-21T06:33:51;9.73;;;3.90;;
22829;SDS011;11581;51.250;6.778;2024-02-21T06:36:17;6.43;;;3.20;;
22829;SDS011;11581;51.250;6.778;2024-02-21T06:38:44;11.20;;;3.55;;
22829;SDS011;11581;51.250;6.778;2024-02-21T06:41:17;10.35;;;3.90;;
22829;SDS011;11581;51.250;6.778;2024-02-21T06:43:44;8.23;;;3.90;;
22829;SDS011;11581;51.250;6.778;2024-02-21T06:46:11;11.88;;;3.60;;
22829;SDS011;11581;51.250;6.778;2024-02-21T06:48:37;8.15;;;3.47;;
22829;SDS011;11581;51.250;6.778;2024-02-21T06:51:04;7.43;;;3.45;;
22829;SDS011;11581;51.250;6.778;2024-02-21T06:53:30;8.35;;;3.42;;
22829;SDS011;11581;51.250;6.778;2024-02-21T06:55:57;7.18;;;3.72;;
22829;SDS011;11581;51.250;6.778;2024-02-21T06:58:24;15.10;;;3.80;;
22829;SDS011;11581;51.250;6.778;2024-02-21T07:00:51;6.43;;;3.20;;
22829;SDS011;11581;51.250;6.778;2024-02-21T07:03:17;9.25;;;3.55;;
22829;SDS011;11581;51.250;6.778;2024-02-21T07:05:45;9.13;;;3.00;;
22829;SDS011;11581;51.250;6.778;2024-02-21T07:08:11;8.35;;;3.67;;
22829;SDS011;11581;51.250;6.778;2024-02-21T07:10:37;9.55;;;3.60;;
22829;SDS011;11581;51.250;6.778;2024-02-21T07:13:04;10.85;;;3.47;;
22829;SDS011;11581;51.250;6.778;2024-02-21T07:15:32;9.32;;;3.40;;
22829;SDS011;11581;51.250;6.778;2024-02-21T07:17:59;9.85;;;3.38;;
22829;SDS011;11581;51.250;6.778;2024-02-21T07:20:25;8.02;;;3.22;;
22829;SDS011;11581;51.250;6.778;2024-02-21T07:22:51;11.15;;;3.33;;
22829;SDS011;11581;51.250;6.778;2024-02-21T07:25:18;7.30;;;3.17;;
22829;SDS011;11581;51.250;6.778;2024-02-21T07:27:44;6.32;;;3.05;;
22829;SDS011;11581;51.250;6.778;2024-02-21T07:30:11;9.50;;;3.28;;
22829;SDS011;11581;51.250;6.778;2024-02-21T07:32:39;9.13;;;3.53;;
22829;SDS011;11581;51.250;6.778;2024-02-21T07:35:06;7.68;;;2.78;;
22829;SDS011;11581;51.250;6.778;2024-02-21T07:37:35;7.07;;;2.92;;
22829;SDS011;11581;51.250;6.778;2024-02-21T07:40:02;5.85;;;2.45;;
22829;SDS011;11581;51.250;6.778;2024-02-21T07:42:29;10.30;;;3.05;;
22829;SDS011;11581;51.250;6.778;2024-02-21T07:44:55;8.13;;;2.53;;
22829;SDS011;11581;51.250;6.778;2024-02-21T07:47:22;6.70;;;2.85;;
22829;SDS011;11581;51.250;6.778;2024-02-21T07:49:50;7.72;;;2.92;;
22829;SDS011;11581;51.250;6.778;2024-02-21T07:52:17;8.77;;;2.60;;
22829;SDS011;11581;51.250;6.778;2024-02-21T07:54:43;10.65;;;3.25;;
22829;SDS011;11581;51.250;6.778;2024-02-21T07:57:10;7.50;;;2.72;;
22829;SDS011;11581;51.250;6.778;2024-02-21T07:59:36;10.00;;;2.97;;
22829;SDS011;11581;51.250;6.778;2024-02-21T08:02:03;9.23;;;3.20;;
22829;SDS011;11581;51.250;6.778;2024-02-21T08:04:31;6.05;;;3.00;;
22829;SDS011;11581;51.250;6.778;2024-02-21T08:06:59;10.80;;;3.13;;
22829;SDS011;11581;51.250;6.778;2024-02-21T08:09:29;10.25;;;2.97;;
22829;SDS011;11581;51.250;6.778;2024-02-21T08:11:56;10.57;;;3.42;;
22829;SDS011;11581;51.250;6.778;2024-02-21T08:14:22;9.30;;;3.13;;
22829;SDS011;11581;51.250;6.778;2024-02-21T08:16:50;11.07;;;3.83;;
22829;SDS011;11581;51.250;6.778;2024-02-21T08:19:16;10.70;;;3.20;;
22829;SDS011;11581;51.250;6.778;2024-02-21T08:21:43;9.88;;;3.20;;
22829;SDS011;11581;51.250;6.778;2024-02-21T08:24:13;10.77;;;2.83;;
22829;SDS011;11581;51.250;6.778;2024-02-21T08:26:40;10.35;;;3.33;;
22829;SDS011;11581;51.250;6.778;2024-02-21T08:29:06;11.15;;;3.13;;
22829;SDS011;11581;51.250;6.778;2024-02-21T08:31:33;11.98;;;3.08;;
22829;SDS011;11581;51.250;6.778;2024-02-21T08:33:59;9.15;;;3.45;;
22829;SDS011;11581;51.250;6.778;2024-02-21T08:36:28;9.90;;;3.47;;
22829;SDS011;11581;51.250;6.778;2024-02-21T08:38:54;7.53;;;3.10;;
22829;SDS011;11581;51.250;6.778;2024-02-21T08:41:23;10.63;;;2.83;;
22829;SDS011;11581;51.250;6.778;2024-02-21T08:43:53;10.20;;;3.55;;
22829;SDS011;11581;51.250;6.778;2024-02-21T08:46:20;8.85;;;3.22;;
22829;SDS011;11581;51.250;6.778;2024-02-21T08:48:46;11.55;;;3.35;;
22829;SDS011;11581;51.250;6.778;2024-02-21T08:51:13;7.70;;;2.67;;
22829;SDS011;11581;51.250;6.778;2024-02-21T08:53:40;12.27;;;3.55;;
22829;SDS011;11581;51.250;6.778;2024-02-21T08:56:06;6.50;;;2.70;;
22829;SDS011;11581;51.250;6.778;2024-02-21T08:58:35;8.90;;;2.95;;
22829;SDS011;11581;51.250;6.778;2024-02-21T09:01:03;9.80;;;3.20;;
22829;SDS011;11581;51.250;6.778;2024-02-21T09:03:30;9.65;;;3.17;;
22829;SDS011;11581;51.250;6.778;2024-02-21T09:05:57;8.43;;;3.10;;
22829;SDS011;11581;51.250;6.778;2024-02-21T09:08:23;6.63;;;2.58;;
22829;SDS011;11581;51.250;6.778;2024-02-21T09:10:50;11.57;;;3.33;;
22829;SDS011;11581;51.250;6.778;2024-02-21T09:13:16;7.60;;;2.63;;
22829;SDS011;11581;51.250;6.778;2024-02-21T09:15:44;14.75;;;3.08;;
22829;SDS011;11581;51.250;6.778;2024-02-21T09:18:11;7.65;;;2.50;;
22829;SDS011;11581;51.250;6.778;2024-02-21T09:20:37;6.38;;;2.47;;
22829;SDS011;11581;51.250;6.778;2024-02-21T09:23:04;7.47;;;2.75;;
22829;SDS011;11581;51.250;6.778;2024-02-21T09:25:30;10.60;;;3.40;;
22829;SDS011;11581;51.250;6.778;2024-02-21T09:27:57;7.80;;;2.85;;
22829;SDS011;11581;51.250;6.778;2024-02-21T09:30:24;10.20;;;3.15;;
22829;SDS011;11581;51.250;6.778;2024-02-21T09:32:52;9.50;;;3.50;;
22829;SDS011;11581;51.250;6.778;2024-02-21T09:35:19;9.30;;;3.88;;
22829;SDS011;11581;51.250;6.778;2024-02-21T09:37:47;8.02;;;3.55;;
22829;SDS011;11581;51.250;6.778;2024-02-21T09:40:15;12.48;;;4.15;;
22829;SDS011;11581;51.250;6.778;2024-02-21T09:42:42;12.40;;;4.53;;
22829;SDS011;11581;51.250;6.778;2024-02-21T09:45:11;8.48;;;3.67;;
22829;SDS011;11581;51.250;6.778;2024-02-21T09:47:40;8.32;;;3.20;;
22829;SDS011;11581;51.250;6.778;2024-02-21T09:50:10;10.68;;;3.17;;
22829;SDS011;11581;51.250;6.778;2024-02-21T09:52:37;7.18;;;3.13;;
22829;SDS011;11581;51.250;6.778;2024-02-21T09:55:04;9.15;;;2.67;;
22829;SDS011;11581;51.250;6.778;2024-02-21T09:57:33;7.72;;;3.08;;
22829;SDS011;11581;51.250;6.778;2024-02-21T10:00:00;7.75;;;2.85;;
22829;SDS011;11581;51.250;6.778;2024-02-21T10:02:38;8.02;;;2.97;;
22829;SDS011;11581;51.250;6.778;2024-02-21T10:05:05;6.63;;;2.35;;
22829;SDS011;11581;51.250;6.778;2024-02-21T10:07:34;7.35;;;3.05;;
22829;SDS011;11581;51.250;6.778;2024-02-21T10:10:01;7.22;;;2.35;;
22829;SDS011;11581;51.250;6.778;2024-02-21T10:12:28;6.85;;;2.40;;
22829;SDS011;11581;51.250;6.778;2024-02-21T10:14:59;10.68;;;2.83;;
22829;SDS011;11581;51.250;6.778;2024-02-21T10:17:26;9.07;;;2.90;;
22829;SDS011;11581;51.250;6.778;2024-02-21T10:19:52;5.30;;;2.22;;
22829;SDS011;11581;51.250;6.778;2024-02-21T10:22:20;7.13;;;2.53;;
22829;SDS011;11581;51.250;6.778;2024-02-21T10:24:48;6.68;;;2.63;;
22829;SDS011;11581;51.250;6.778;2024-02-21T10:27:14;5.18;;;1.80;;
22829;SDS011;11581;51.250;6.778;2024-02-21T10:29:41;10.57;;;2.70;;
22829;SDS011;11581;51.250;6.778;2024-02-21T10:32:08;6.50;;;2.55;;
22829;SDS011;11581;51.250;6.778;2024-02-21T10:34:35;4.35;;;1.80;;
22829;SDS011;11581;51.250;6.778;2024-02-21T10:37:02;5.65;;;2.05;;
22829;SDS011;11581;51.250;6.778;2024-02-21T10:39:28;5.70;;;2.47;;
22829;SDS011;11581;51.250;6.778;2024-02-21T10:41:57;5.72;;;1.90;;
22829;SDS011;11581;51.250;6.778;2024-02-21T10:44:25;5.03;;;1.85;;
22829;SDS011;11581;51.250;6.778;2024-02-21T10:46:54;9.20;;;2.40;;
22829;SDS011;11581;51.250;6.778;2024-02-21T10:49:22;5.50;;;2.00;;
22829;SDS011;11581;51.250;6.778;2024-02-21T10:51:50;6.55;;;2.22;;
22829;SDS011;11581;51.250;6.778;2024-02-21T10:54:24;7.32;;;1.90;;
22829;SDS011;11581;51.250;6.778;2024-02-21T10:56:53;5.78;;;2.20;;
22829;SDS011;11581;51.250;6.778;2024-02-21T10:59:23;8.07;;;2.35;;
22829;SDS011;11581;51.250;6.778;2024-02-21T11:01:51;6.38;;;2.45;;
22829;SDS011;11581;51.250;6.778;2024-02-21T11:04:18;5.80;;;2.03;;
22829;SDS011;11581;51.250;6.778;2024-02-21T11:06:45;7.97;;;2.28;;
22829;SDS011;11581;51.250;6.778;2024-02-21T11:09:12;5.63;;;2.17;;
22829;SDS011;11581;51.250;6.778;2024-02-21T11:11:39;6.28;;;2.42;;
22829;SDS011;11581;51.250;6.778;2024-02-21T11:14:06;5.25;;;2.13;;
22829;SDS011;11581;51.250;6.778;2024-02-21T11:16:36;8.13;;;2.63;;
22829;SDS011;11581;51.250;6.778;2024-02-21T11:19:04;7.47;;;2.60;;
22829;SDS011;11581;51.250;6.778;2024-02-21T11:21:32;6.72;;;2.50;;
22829;SDS011;11581;51.250;6.778;2024-02-21T11:23:59;6.57;;;2.20;;
22829;SDS011;11581;51.250;6.778;2024-02-21T11:26:27;7.15;;;2.28;;
22829;SDS011;11581;51.250;6.778;2024-02-21T11:28:57;7.50;;;2.25;;
22829;SDS011;11581;51.250;6.778;2024-02-21T11:31:24;5.07;;;2.08;;
22829;SDS011;11581;51.250;6.778;2024-02-21T11:33:53;7.22;;;2.33;;
22829;SDS011;11581;51.250;6.778;2024-02-21T11:36:24;10.15;;;2.63;;
22829;SDS011;11581;51.250;6.778;2024-02-21T11:38:50;7.95;;;2.35;;
22829;SDS011;11581;51.250;6.778;2024-02-21T11:41:17;9.85;;;2.42;;
22829;SDS011;11581;51.250;6.778;2024-02-21T11:43:43;5.78;;;2.22;;
22829;SDS011;11581;51.250;6.778;2024-02-21T11:46:10;5.53;;;2.33;;
22829;SDS011;11581;51.250;6.778;2024-02-21T11:48:36;5.13;;;2.15;;
22829;SDS011;11581;51.250;6.778;2024-02-21T11:51:05;6.65;;;2.30;;
22829;SDS011;11581;51.250;6.778;2024-02-21T11:53:31;7.65;;;2.60;;
22829;SDS011;11581;51.250;6.778;2024-02-21T11:55:58;10.80;;;3.03;;
22829;SDS011;11581;51.250;6.778;2024-02-21T11:58:24;8.82;;;2.50;;
22829;SDS011;11581;51.250;6.778;2024-02-21T12:00:51;5.80;;;2.15;;
22829;SDS011;11581;51.250;6.778;2024-02-21T12:03:18;7.07;;;2.58;;
22829;SDS011;11581;51.250;6.778;2024-02-21T12:05:44;7.57;;;2.53;;
22829;SDS011;11581;51.250;6.778;2024-02-21T12:08:13;7.57;;;2.63;;
22829;SDS011;11581;51.250;6.778;2024-02-21T12:10:41;9.05;;;2.63;;
22829;SDS011;11581;51.250;6.778;2024-02-21T12:13:09;8.85;;;1.95;;
22829;SDS011;11581;51.250;6.778;2024-02-21T12:15:38;8.68;;;2.35;;
22829;SDS011;11581;51.250;6.778;2024-02-21T12:18:04;6.15;;;1.67;;
22829;SDS011;11581;51.250;6.778;2024-02-21T12:20:31;5.75;;;2.30;;
22829;SDS011;11581;51.250;6.778;2024-02-21T12:22:59;6.82;;;1.88;;
22829;SDS011;11581;51.250;6.778;2024-02-21T12:25:27;6.75;;;2.25;;
22829;SDS011;11581;51.250;6.778;2024-02-21T12:27:54;5.95;;;2.33;;
22829;SDS011;11581;51.250;6.778;2024-02-21T12:30:21;4.20;;;1.63;;
22829;SDS011;11581;51.250;6.778;2024-02-21T12:32:48;5.38;;;2.00;;
22829;SDS011;11581;51.250;6.778;2024-02-21T12:35:14;6.25;;;1.95;;
22829;SDS011;11581;51.250;6.778;2024-02-21T12:37:42;11.88;;;2.47;;
22829;SDS011;11581;51.250;6.778;2024-02-21T12:40:09;4.57;;;1.80;;
22829;SDS011;11581;51.250;6.778;2024-02-21T12:42:39;5.88;;;1.92;;
22829;SDS011;11581;51.250;6.778;2024-02-21T12:45:06;5.40;;;1.95;;
22829;SDS011;11581;51.250;6.778;2024-02-21T12:47:33;14.27;;;1.92;;
22829;SDS011;11581;51.250;6.778;2024-02-21T12:49:59;5.72;;;2.00;;
22829;SDS011;11581;51.250;6.778;2024-02-21T12:52:28;6.50;;;2.30;;
22829;SDS011;11581;51.250;6.778;2024-02-21T12:54:54;7.45;;;2.00;;
22829;SDS011;11581;51.250;6.778;2024-02-21T12:57:23;7.63;;;2.30;;
22829;SDS011;11581;51.250;6.778;2024-02-21T12:59:51;7.53;;;2.28;;
22829;SDS011;11581;51.250;6.778;2024-02-21T13:02:18;4.80;;;2.05;;
22829;SDS011;11581;51.250;6.778;2024-02-21T13:04:45;5.13;;;1.88;;
22829;SDS011;11581;51.250;6.778;2024-02-21T13:07:11;5.45;;;1.90;;
22829;SDS011;11581;51.250;6.778;2024-02-21T13:09:38;7.93;;;2.15;;
22829;SDS011;11581;51.250;6.778;2024-02-21T13:12:05;4.47;;;1.85;;
22829;SDS011;11581;51.250;6.778;2024-02-21T13:14:32;7.57;;;1.63;;
22829;SDS011;11581;51.250;6.778;2024-02-21T13:17:01;8.48;;;2.05;;
22829;SDS011;11581;51.250;6.778;2024-02-21T13:19:28;10.07;;;1.83;;
22829;SDS011;11581;51.250;6.778;2024-02-21T13:21:55;6.05;;;1.80;;
22829;SDS011;11581;51.250;6.778;2024-02-21T13:24:21;8.35;;;2.40;;
22829;SDS011;11581;51.250;6.778;2024-02-21T13:26:48;8.02;;;2.10;;
22829;SDS011;11581;51.250;6.778;2024-02-21T13:29:14;6.63;;;2.22;;
22829;SDS011;11581;51.250;6.778;2024-02-21T13:31:41;6.55;;;1.95;;
22829;SDS011;11581;51.250;6.778;2024-02-21T13:34:09;7.10;;;1.98;;
22829;SDS011;11581;51.250;6.778;2024-02-21T13:36:35;7.90;;;2.28;;
22829;SDS011;11581;51.250;6.778;2024-02-21T13:39:02;8.55;;;2.00;;
22829;SDS011;11581;51.250;6.778;2024-02-21T13:41:30;8.73;;;1.77;;
22829;SDS011;11581;51.250;6.778;2024-02-21T13:43:56;8.32;;;1.98;;
22829;SDS011;11581;51.250;6.778;2024-02-21T13:46:25;7.13;;;2.30;;
22829;SDS011;11581;51.250;6.778;2024-02-21T13:48:52;4.97;;;2.00;;
22829;SDS011;11581;51.250;6.778;2024-02-21T13:51:20;7.03;;;2.08;;
22829;SDS011;11581;51.250;6.778;2024-02-21T13:53:46;6.55;;;2.00;;
22829;SDS011;11581;51.250;6.778;2024-02-21T13:56:13;7.22;;;2.15;;
22829;SDS011;11581;51.250;6.778;2024-02-21T13:58:39;10.85;;;1.95;;
22829;SDS011;11581;51.250;6.778;2024-02-21T14:01:06;7.10;;;1.98;;
22829;SDS011;11581;51.250;6.778;2024-02-21T14:03:34;7.88;;;2.00;;
22829;SDS011;11581;51.250;6.778;2024-02-21T14:06:00;7.78;;;2.20;;
22829;SDS011;11581;51.250;6.778;2024-02-21T14:08:28;16.83;;;2.25;;
22829;SDS011;11581;51.250;6.778;2024-02-21T14:10:54;6.00;;;2.17;;
22829;SDS011;11581;51.250;6.778;2024-02-21T14:13:24;5.65;;;2.38;;
22829;SDS011;11581;51.250;6.778;2024-02-21T14:15:50;5.95;;;2.13;;
22829;SDS011;11581;51.250;6.778;2024-02-21T14:18:17;7.45;;;2.55;;
22829;SDS011;11581;51.250;6.778;2024-02-21T14:20:43;9.93;;;2.30;;
22829;SDS011;11581;51.250;6.778;2024-02-21T14:23:12;6.88;;;2.30;;
22829;SDS011;11581;51.250;6.778;2024-02-21T14:25:40;6.18;;;2.35;;
22829;SDS011;11581;51.250;6.778;2024-02-21T14:28:07;6.47;;;2.08;;
22829;SDS011;11581;51.250;6.778;2024-02-21T14:30:34;5.57;;;2.00;;
22829;SDS011;11581;51.250;6.778;2024-02-21T14:33:01;5.38;;;1.80;;
22829;SDS011;11581;51.250;6.778;2024-02-21T14:35:27;5.85;;;1.67;;
22829;SDS011;11581;51.250;6.778;2024-02-21T14:37:54;8.30;;;2.30;;
22829;SDS011;11581;51.250;6.778;2024-02-21T14:40:22;6.88;;;1.90;;